Time;durP1;ratioP1;P1;durP2;ratioP2;P2;SDS_P1;SDS_P2;PMS_P1;PMS_P2;Temp;Humidity;BMP_temperature;BMP_pressure;BME280_temperature;BME280_humidity;BME280_pressure;Samples;Min_cycle;Max_cycle;Signal;HPM_P1;HPM_P2
2023/03/14 00:00:13;;;;;;;9.38;2.83;;;;;;;;;;5051241;28;20040;-66
2023/03/14 00:02:40;;;;;;;11.38;3.80;;;;;;;;;;5032028;28;20045;-66
2023/03/14 00:05:07;;;;;;;12.13;3.70;;;;;;;;;;5051555;28;20076;-67
2023/03/14 00:07:36;;;;;;;10.20;4.70;;;;;;;;;;5040408;28;20080;-67
2023/03/14 00:10:04;;;;;;;11.25;3.40;;;;;;;;;;5052204;28;20447;-67
2023/03/14 00:12:30;;;;;;;;;;;;;;;;;;5026322;28;20045;-66
2023/03/14 00:14:56;;;;;;;11.45;4.90;;;;;;;;;;5052081;28;19921;-66
2023/03/14 00:17:23;;;;;;;10.70;3.70;;;;;;;;;;5024251;28;20052;-66
2023/03/14 00:19:52;;;;;;;10.05;3.88;;;;;;;;;;5051995;28;20048;-66
2023/03/14 00:22:18;;;;;;;12.63;4.47;;;;;;;;;;5052307;28;20041;-66
2023/03/14 00:24:45;;;;;;;9.95;3.58;;;;;;;;;;5051940;28;20049;-66
2023/03/14 00:27:11;;;;;;;14.18;4.57;;;;;;;;;;5052001;28;20439;-66
2023/03/14 00:29:37;;;;;;;14.50;5.45;;;;;;;;;;5051940;28;20048;-66
2023/03/14 00:32:04;;;;;;;7.68;3.20;;;;;;;;;;5051956;28;20063;-66
2023/03/14 00:34:31;;;;;;;4.95;1.60;;;;;;;;;;5051626;28;20060;-66
2023/03/14 00:36:57;;;;;;;6.07;2.37;;;;;;;;;;5051913;28;20040;-66
2023/03/14 00:39:23;;;;;;;6.45;2.20;;;;;;;;;;5051856;28;20051;-66
2023/03/14 00:41:50;;;;;;;6.15;1.73;;;;;;;;;;5051782;28;20041;-66
2023/03/14 00:44:16;;;;;;;9.95;2.55;;;;;;;;;;5051745;28;20053;-66
2023/03/14 00:46:43;;;;;;;9.73;2.33;;;;;;;;;;5051698;28;20134;-66
2023/03/14 00:49:09;;;;;;;5.43;1.35;;;;;;;;;;5051515;28;20562;-66
2023/03/14 00:51:35;;;;;;;4.65;1.38;;;;;;;;;;5051298;28;20508;-66
2023/03/14 00:54:02;;;;;;;4.25;1.42;;;;;;;;;;5051771;28;20543;-66
2023/03/14 00:56:28;;;;;;;4.07;1.25;;;;;;;;;;5051543;28;20075;-66
2023/03/14 00:58:55;;;;;;;4.45;1.30;;;;;;;;;;5055415;28;20496;-66
2023/03/14 01:01:22;;;;;;;8.23;1.98;;;;;;;;;;5055742;28;20598;-66
2023/03/14 01:03:52;;;;;;;4.95;1.75;;;;;;;;;;5055751;28;20044;-66
2023/03/14 01:06:20;;;;;;;4.05;1.02;;;;;;;;;;5055805;28;20395;-66
2023/03/14 01:08:47;;;;;;;3.90;1.08;;;;;;;;;;5055539;28;20055;-66
2023/03/14 01:11:18;;;;;;;7.05;1.25;;;;;;;;;;5055351;28;20053;-66
2023/03/14 01:13:44;;;;;;;8.43;1.38;;;;;;;;;;5055343;28;20049;-66
2023/03/14 01:16:11;;;;;;;5.55;1.10;;;;;;;;;;5048740;28;20056;-66
2023/03/14 01:18:38;;;;;;;6.38;1.35;;;;;;;;;;5055193;28;20151;-66
2023/03/14 01:21:16;;;;;;;3.72;0.90;;;;;;;;;;5053711;28;20051;-66
2023/03/14 01:23:43;;;;;;;5.85;1.50;;;;;;;;;;5046052;28;20059;-66
2023/03/14 01:26:14;;;;;;;7.68;1.50;;;;;;;;;;5053997;28;20045;-66
2023/03/14 01:28:40;;;;;;;6.38;1.40;;;;;;;;;;5035319;28;20059;-66
2023/03/14 01:31:08;;;;;;;9.00;1.50;;;;;;;;;;5054480;28;20055;-66
2023/03/14 01:33:35;;;;;;;6.18;1.58;;;;;;;;;;5043739;28;20053;-66
2023/03/14 01:36:02;;;;;;;7.97;1.73;;;;;;;;;;5054779;28;20064;-66
2023/03/14 01:38:29;;;;;;;4.00;1.13;;;;;;;;;;5040998;28;20053;-66
2023/03/14 01:40:56;;;;;;;6.80;1.30;;;;;;;;;;5054950;28;20049;-66
2023/03/14 01:43:24;;;;;;;10.55;1.70;;;;;;;;;;5027463;28;20052;-66
2023/03/14 01:46:05;;;;;;;8.15;1.38;;;;;;;;;;5054423;28;20400;-66
2023/03/14 01:48:35;;;;;;;8.57;1.90;;;;;;;;;;5039715;28;20056;-66
2023/03/14 01:51:02;;;;;;;11.55;1.70;;;;;;;;;;5054694;28;20067;-66
2023/03/14 01:53:28;;;;;;;10.83;1.60;;;;;;;;;;5051727;28;20484;-66
2023/03/14 01:55:58;;;;;;;6.68;1.50;;;;;;;;;;5054617;28;20078;-66
2023/03/14 01:58:27;;;;;;;5.35;1.08;;;;;;;;;;5050629;28;20067;-66
2023/03/14 02:00:54;;;;;;;6.78;1.52;;;;;;;;;;5054289;28;20147;-66
2023/03/14 02:03:22;;;;;;;6.35;1.80;;;;;;;;;;5050482;28;20045;-66
2023/03/14 02:05:49;;;;;;;7.97;1.92;;;;;;;;;;5054620;28;20041;-66
2023/03/14 02:08:18;;;;;;;6.70;1.48;;;;;;;;;;5046294;28;20457;-66
2023/03/14 02:10:46;;;;;;;9.65;1.63;;;;;;;;;;5053670;28;20131;-66
2023/03/14 02:13:14;;;;;;;8.40;1.52;;;;;;;;;;5048314;28;20052;-66
2023/03/14 02:15:40;;;;;;;6.85;1.23;;;;;;;;;;5054407;28;20099;-66
2023/03/14 02:18:07;;;;;;;8.27;1.40;;;;;;;;;;5042150;28;20083;-66
2023/03/14 02:20:37;;;;;;;8.77;1.60;;;;;;;;;;5049824;28;20050;-66
2023/03/14 02:23:03;;;;;;;10.25;1.98;;;;;;;;;;5042880;28;20049;-66
2023/03/14 02:25:32;;;;;;;6.05;1.42;;;;;;;;;;5054051;28;20499;-66
2023/03/14 02:27:59;;;;;;;10.68;1.75;;;;;;;;;;5041226;28;20444;-66
2023/03/14 02:30:27;;;;;;;8.77;1.43;;;;;;;;;;5054232;28;20080;-66
2023/03/14 02:33:04;;;;;;;9.18;1.58;;;;;;;;;;5029178;28;20057;-66
2023/03/14 02:35:51;;;;;;;6.78;1.25;;;;;;;;;;5053561;28;20461;-66
2023/03/14 02:38:39;;;;;;;10.98;1.65;;;;;;;;;;5038352;28;20130;-66
2023/03/14 02:41:05;;;;;;;6.82;1.33;;;;;;;;;;5052712;28;20136;-66
2023/03/14 02:43:32;;;;;;;9.93;1.30;;;;;;;;;;5039939;28;20374;-66
2023/03/14 02:46:00;;;;;;;8.20;1.15;;;;;;;;;;5054205;28;20151;-66
2023/03/14 02:48:29;;;;;;;4.22;1.10;;;;;;;;;;5037811;28;20146;-66
2023/03/14 02:50:57;;;;;;;10.50;1.58;;;;;;;;;;5053293;28;20465;-66
2023/03/14 02:53:25;;;;;;;9.40;1.63;;;;;;;;;;5050971;28;20135;-66
2023/03/14 02:55:52;;;;;;;8.20;1.45;;;;;;;;;;5053461;28;20512;-66
2023/03/14 02:58:19;;;;;;;9.25;1.65;;;;;;;;;;5049076;28;20045;-66
2023/03/14 03:00:45;;;;;;;10.20;2.23;;;;;;;;;;5052922;28;20045;-66
2023/03/14 03:03:12;;;;;;;10.68;1.75;;;;;;;;;;5047542;28;20048;-66
2023/03/14 03:05:38;;;;;;;9.43;1.50;;;;;;;;;;5053535;28;20049;-66
2023/03/14 03:08:05;;;;;;;7.47;1.52;;;;;;;;;;5047985;28;20056;-66
2023/03/14 03:10:32;;;;;;;6.03;1.38;;;;;;;;;;5052788;28;20562;-66
2023/03/14 03:12:58;;;;;;;7.70;1.48;;;;;;;;;;5047257;28;20507;-66
2023/03/14 03:15:24;;;;;;;7.22;1.63;;;;;;;;;;5053009;28;20052;-66
2023/03/14 03:17:51;;;;;;;7.65;1.40;;;;;;;;;;5042093;28;20067;-66
2023/03/14 03:20:17;;;;;;;5.32;1.42;;;;;;;;;;5050770;28;20131;-66
2023/03/14 03:22:44;;;;;;;6.40;1.73;;;;;;;;;;5038959;28;20049;-66
2023/03/14 03:25:10;;;;;;;10.52;1.60;;;;;;;;;;5053235;28;20128;-66
2023/03/14 03:27:37;;;;;;;7.28;1.00;;;;;;;;;;5040216;28;20163;-66
2023/03/14 03:30:05;;;;;;;12.10;1.75;;;;;;;;;;5052632;28;20060;-66
2023/03/14 03:32:31;;;;;;;10.95;1.85;;;;;;;;;;5029675;28;20052;-66
2023/03/14 03:34:58;;;;;;;9.48;1.60;;;;;;;;;;5024763;28;20056;-66
2023/03/14 03:37:24;;;;;;;9.68;1.60;;;;;;;;;;5040424;28;20140;-66
2023/03/14 03:39:51;;;;;;;8.90;1.50;;;;;;;;;;5050387;28;20072;-66
2023/03/14 03:42:18;;;;;;;7.03;1.73;;;;;;;;;;5041540;28;20049;-66
2023/03/14 03:44:44;;;;;;;8.75;1.63;;;;;;;;;;5049290;28;20378;-66
2023/03/14 03:47:11;;;;;;;7.53;1.67;;;;;;;;;;5043269;28;20394;-66
2023/03/14 03:49:37;;;;;;;6.72;1.55;;;;;;;;;;5046812;28;20052;-66
2023/03/14 03:52:03;;;;;;;9.40;1.60;;;;;;;;;;5049900;28;20064;-66
2023/03/14 03:54:30;;;;;;;7.25;1.50;;;;;;;;;;5052427;28;20127;-66
2023/03/14 03:56:56;;;;;;;10.38;1.45;;;;;;;;;;5048026;28;20055;-66
2023/03/14 03:59:22;;;;;;;7.53;1.50;;;;;;;;;;5052006;28;20064;-66
2023/03/14 04:01:49;;;;;;;8.27;1.30;;;;;;;;;;5048071;28;20056;-66
2023/03/14 04:04:15;;;;;;;7.32;1.67;;;;;;;;;;5052536;28;20052;-66
2023/03/14 04:06:42;;;;;;;5.28;1.25;;;;;;;;;;5044744;28;20441;-66
2023/03/14 04:09:09;;;;;;;6.90;1.30;;;;;;;;;;5050569;28;20073;-66
2023/03/14 04:11:35;;;;;;;8.77;1.70;;;;;;;;;;5046545;28;20052;-66
2023/03/14 04:14:02;;;;;;;8.27;1.80;;;;;;;;;;5051617;28;20412;-66
2023/03/14 04:16:31;;;;;;;6.90;1.60;;;;;;;;;;5040784;28;20048;-66
2023/03/14 04:18:57;;;;;;;7.65;1.75;;;;;;;;;;5047237;28;20081;-66
2023/03/14 04:21:24;;;;;;;6.88;1.15;;;;;;;;;;5045675;28;20071;-66
2023/03/14 04:23:50;;;;;;;6.35;1.65;;;;;;;;;;5032638;28;20048;-66
2023/03/14 04:26:16;;;;;;;5.45;1.15;;;;;;;;;;5049405;28;20048;-66
2023/03/14 04:28:43;;;;;;;9.65;1.27;;;;;;;;;;5046871;28;20057;-66
2023/03/14 04:31:09;;;;;;;10.27;2.05;;;;;;;;;;5050214;28;20045;-66
2023/03/14 04:33:37;;;;;;;9.50;1.90;;;;;;;;;;5044411;28;20060;-66
2023/03/14 04:36:04;;;;;;;11.50;1.67;;;;;;;;;;5051857;28;20085;-66
2023/03/14 04:38:30;;;;;;;7.22;1.45;;;;;;;;;;5034968;28;20124;-66
2023/03/14 04:40:57;;;;;;;6.25;1.60;;;;;;;;;;5051799;28;20041;-66
2023/03/14 04:43:24;;;;;;;6.38;1.17;;;;;;;;;;5033550;28;20051;-66
2023/03/14 04:45:52;;;;;;;6.93;1.40;;;;;;;;;;5051264;28;20040;-66
2023/03/14 04:48:19;;;;;;;8.02;1.50;;;;;;;;;;5040278;28;20143;-66
2023/03/14 04:50:46;;;;;;;8.52;1.58;;;;;;;;;;5051289;28;20059;-66
2023/03/14 04:53:13;;;;;;;9.38;2.45;;;;;;;;;;5039357;28;20076;-66
2023/03/14 04:55:39;;;;;;;9.35;1.63;;;;;;;;;;5051552;28;20072;-66
2023/03/14 04:58:05;;;;;;;6.13;1.05;;;;;;;;;;5036953;28;20049;-66
2023/03/14 05:00:32;;;;;;;9.60;2.13;;;;;;;;;;5051121;28;20051;-66
2023/03/14 05:02:58;;;;;;;10.43;1.80;;;;;;;;;;5025196;28;20060;-66
2023/03/14 05:05:25;;;;;;;7.35;1.60;;;;;;;;;;5050710;28;20382;-66
2023/03/14 05:07:51;;;;;;;8.05;1.83;;;;;;;;;;5035716;28;20054;-66
2023/03/14 05:10:18;;;;;;;11.95;1.95;;;;;;;;;;5050522;28;20044;-66
2023/03/14 05:12:44;;;;;;;10.45;1.80;;;;;;;;;;5037433;28;20066;-66
2023/03/14 05:15:10;;;;;;;9.25;1.55;;;;;;;;;;5050684;28;20056;-66
2023/03/14 05:17:37;;;;;;;6.53;1.63;;;;;;;;;;5048071;28;20064;-66
2023/03/14 05:20:12;;;;;;;9.18;1.80;;;;;;;;;;5050444;28;20049;-66
2023/03/14 05:22:39;;;;;;;8.00;1.67;;;;;;;;;;5044727;28;20516;-66
2023/03/14 05:25:06;;;;;;;7.47;1.73;;;;;;;;;;5050675;28;20132;-66
2023/03/14 05:27:33;;;;;;;5.38;2.00;;;;;;;;;;5045894;28;20060;-66
2023/03/14 05:29:59;;;;;;;10.80;1.63;;;;;;;;;;5050240;28;20415;-66
2023/03/14 05:32:26;;;;;;;11.45;1.98;;;;;;;;;;5040276;28;20492;-66
2023/03/14 05:34:52;;;;;;;6.57;1.40;;;;;;;;;;5051175;28;20075;-66
2023/03/14 05:37:19;;;;;;;10.15;1.85;;;;;;;;;;5040041;28;20053;-66
2023/03/14 05:39:45;;;;;;;8.15;1.42;;;;;;;;;;5050013;28;20053;-66
2023/03/14 05:42:11;;;;;;;6.43;1.33;;;;;;;;;;5038376;28;20077;-66
2023/03/14 05:44:38;;;;;;;7.45;1.60;;;;;;;;;;5052121;28;20120;-66
2023/03/14 05:47:04;;;;;;;6.70;1.25;;;;;;;;;;5040013;28;20054;-66
2023/03/14 05:49:30;;;;;;;8.15;1.45;;;;;;;;;;5053784;28;20041;-66
2023/03/14 05:51:57;;;;;;;6.28;1.45;;;;;;;;;;5046085;28;20078;-66
2023/03/14 05:54:23;;;;;;;11.63;1.70;;;;;;;;;;5053755;28;20052;-66
2023/03/14 05:56:49;;;;;;;7.68;1.77;;;;;;;;;;5047301;28;20058;-66
2023/03/14 05:59:16;;;;;;;9.25;1.95;;;;;;;;;;5051109;28;20048;-66
2023/03/14 06:01:42;;;;;;;5.85;1.90;;;;;;;;;;5044500;28;20045;-66
2023/03/14 06:04:09;;;;;;;9.52;2.03;;;;;;;;;;5044458;28;20040;-66
2023/03/14 06:06:35;;;;;;;9.73;1.88;;;;;;;;;;5049307;28;20068;-66
2023/03/14 06:09:01;;;;;;;7.28;1.90;;;;;;;;;;5047312;28;20061;-66
2023/03/14 06:11:28;;;;;;;8.23;2.00;;;;;;;;;;5049834;28;20056;-66
2023/03/14 06:13:54;;;;;;;7.50;2.20;;;;;;;;;;5045971;28;20535;-66
2023/03/14 06:16:20;;;;;;;8.15;2.25;;;;;;;;;;5050871;28;20485;-66
2023/03/14 06:18:48;;;;;;;7.30;1.80;;;;;;;;;;5043385;28;20090;-66
2023/03/14 06:21:15;;;;;;;;;;;;;;;;;;5051951;28;20132;-66
2023/03/14 06:23:44;;;;;;;7.57;1.55;;;;;;;;;;5042654;28;19978;-67
2023/03/14 06:26:11;;;;;;;5.55;1.92;;;;;;;;;;5052273;28;20493;-67
2023/03/14 06:28:38;;;;;;;6.80;1.88;;;;;;;;;;5047398;28;20057;-67
2023/03/14 06:31:04;;;;;;;6.43;1.27;;;;;;;;;;5053963;28;20282;-66
2023/03/14 06:33:31;;;;;;;9.07;1.42;;;;;;;;;;5044572;28;20064;-66
2023/03/14 06:35:57;;;;;;;6.55;1.50;;;;;;;;;;5053871;28;20051;-67
2023/03/14 06:38:24;;;;;;;6.22;1.40;;;;;;;;;;5046208;28;20130;-67
2023/03/14 06:40:50;;;;;;;6.72;1.70;;;;;;;;;;5053839;28;20051;-67
2023/03/14 06:43:16;;;;;;;10.05;1.50;;;;;;;;;;5045907;28;20049;-67
2023/03/14 06:45:43;;;;;;;5.15;1.52;;;;;;;;;;5053863;28;20041;-67
2023/03/14 06:48:09;;;;;;;11.88;1.80;;;;;;;;;;5044660;28;20048;-67
2023/03/14 06:50:35;;;;;;;8.73;1.25;;;;;;;;;;5053111;28;20053;-67
2023/03/14 06:53:02;;;;;;;6.72;1.40;;;;;;;;;;5044141;28;20052;-67
2023/03/14 06:55:28;;;;;;;7.70;1.40;;;;;;;;;;5052121;28;20460;-67
2023/03/14 06:57:55;;;;;;;6.65;1.30;;;;;;;;;;5042355;28;20075;-67
2023/03/14 07:00:21;;;;;;;8.20;1.50;;;;;;;;;;5053427;28;20123;-67
2023/03/14 07:02:47;;;;;;;5.28;1.45;;;;;;;;;;5041954;28;20041;-67
2023/03/14 07:05:14;;;;;;;8.90;1.52;;;;;;;;;;5053327;28;20051;-67
2023/03/14 07:07:40;;;;;;;6.38;1.42;;;;;;;;;;5040903;28;20485;-67
2023/03/14 07:10:08;;;;;;;9.98;1.65;;;;;;;;;;5053062;28;20542;-67
2023/03/14 07:12:35;;;;;;;5.85;1.63;;;;;;;;;;5040033;28;20053;-67
2023/03/14 07:15:01;;;;;;;7.15;2.00;;;;;;;;;;5053193;28;20093;-67
2023/03/14 07:17:43;;;;;;;4.57;1.05;;;;;;;;;;5039107;28;20049;-67
2023/03/14 07:20:11;;;;;;;7.18;1.60;;;;;;;;;;5053227;28;20055;-67
2023/03/14 07:22:37;;;;;;;6.55;1.75;;;;;;;;;;5028217;28;20050;-67
2023/03/14 07:25:04;;;;;;;4.32;1.27;;;;;;;;;;5051294;28;20049;-67
2023/03/14 07:27:30;;;;;;;7.35;1.50;;;;;;;;;;5047403;28;20510;-67
2023/03/14 07:29:57;;;;;;;3.50;1.10;;;;;;;;;;5051828;28;20568;-67
2023/03/14 07:32:23;;;;;;;5.22;1.02;;;;;;;;;;5042811;28;20041;-67
2023/03/14 07:34:50;;;;;;;4.90;1.50;;;;;;;;;;5051449;28;20056;-67
2023/03/14 07:37:16;;;;;;;5.28;1.13;;;;;;;;;;5045716;28;20125;-67
2023/03/14 07:39:42;;;;;;;6.55;1.25;;;;;;;;;;5052238;28;20041;-67
2023/03/14 07:42:09;;;;;;;5.43;0.90;;;;;;;;;;5039828;28;20045;-67
2023/03/14 07:44:35;;;;;;;5.78;0.95;;;;;;;;;;5052068;28;20417;-67
2023/03/14 07:47:02;;;;;;;6.30;1.10;;;;;;;;;;5037876;28;20085;-67
2023/03/14 07:49:28;;;;;;;5.07;0.98;;;;;;;;;;5047308;28;20049;-67
2023/03/14 07:51:54;;;;;;;6.90;0.90;;;;;;;;;;5036798;28;20076;-67
2023/03/14 07:54:21;;;;;;;3.70;0.70;;;;;;;;;;5050806;28;20049;-65
2023/03/14 07:56:47;;;;;;;4.85;0.88;;;;;;;;;;5038795;28;20053;-66
2023/03/14 07:59:13;;;;;;;2.83;0.75;;;;;;;;;;5027345;28;20053;-67
2023/03/14 08:01:40;;;;;;;3.85;0.80;;;;;;;;;;5041960;28;20050;-66
2023/03/14 08:04:06;;;;;;;1.92;0.65;;;;;;;;;;5046304;28;20048;-66
2023/03/14 08:06:34;;;;;;;3.92;0.80;;;;;;;;;;5046838;28;20077;-67
2023/03/14 08:09:00;;;;;;;;;;;;;;;;;;5044709;28;20061;-67
2023/03/14 08:11:27;;;;;;;2.05;0.63;;;;;;;;;;5047888;28;20384;-66
2023/03/14 08:13:53;;;;;;;4.10;1.02;;;;;;;;;;5031983;28;20052;-66
2023/03/14 08:16:19;;;;;;;4.10;0.82;;;;;;;;;;5030576;28;20053;-67
2023/03/14 08:18:46;;;;;;;6.25;1.73;;;;;;;;;;5051502;28;20431;-67
2023/03/14 08:21:12;;;;;;;14.32;8.30;;;;;;;;;;5049771;28;20128;-67
2023/03/14 08:23:39;;;;;;;4.38;2.08;;;;;;;;;;5041575;28;20045;-66
2023/03/14 08:26:06;;;;;;;6.38;2.13;;;;;;;;;;5040944;28;20058;-67
2023/03/14 08:28:33;;;;;;;7.32;2.78;;;;;;;;;;5039454;28;20131;-66
2023/03/14 08:31:00;;;;;;;8.48;2.17;;;;;;;;;;5030786;28;20041;-66
2023/03/14 08:33:27;;;;;;;7.97;1.85;;;;;;;;;;5030920;28;20093;-67
2023/03/14 08:35:54;;;;;;;4.13;1.40;;;;;;;;;;5041412;28;20049;-66
2023/03/14 08:38:20;;;;;;;3.88;1.40;;;;;;;;;;5051007;28;20560;-67
2023/03/14 08:40:47;;;;;;;6.15;1.15;;;;;;;;;;5039064;28;20060;-67
2023/03/14 08:43:13;;;;;;;3.90;0.85;;;;;;;;;;5035557;28;20045;-67
2023/03/14 08:45:40;;;;;;;4.57;1.00;;;;;;;;;;5035082;28;20072;-67
2023/03/14 08:48:06;;;;;;;2.60;1.05;;;;;;;;;;5046852;28;20084;-67
2023/03/14 08:50:32;;;;;;;5.05;1.40;;;;;;;;;;5046644;28;20136;-67
2023/03/14 08:53:00;;;;;;;5.10;1.33;;;;;;;;;;5044438;28;20048;-67
2023/03/14 08:55:29;;;;;;;4.00;0.85;;;;;;;;;;5046801;28;20050;-67
2023/03/14 08:57:56;;;;;;;3.67;1.40;;;;;;;;;;5042997;28;20065;-67
2023/03/14 09:00:22;;;;;;;6.43;1.17;;;;;;;;;;5048083;28;20074;-67
2023/03/14 09:02:49;;;;;;;4.47;0.85;;;;;;;;;;5043029;28;20053;-67
2023/03/14 09:05:15;;;;;;;2.97;0.75;;;;;;;;;;5048740;28;20132;-67
2023/03/14 09:07:42;;;;;;;2.97;0.60;;;;;;;;;;5041842;28;20144;-67
2023/03/14 09:10:08;;;;;;;3.65;0.60;;;;;;;;;;5050389;28;20056;-67
2023/03/14 09:12:35;;;;;;;3.17;0.68;;;;;;;;;;5027365;28;20057;-67
2023/03/14 09:15:01;;;;;;;2.28;0.63;;;;;;;;;;5051397;28;20067;-67
2023/03/14 09:17:28;;;;;;;2.17;0.52;;;;;;;;;;5037120;28;20124;-67
2023/03/14 09:19:54;;;;;;;2.38;0.60;;;;;;;;;;5048608;28;20045;-67
2023/03/14 09:22:21;;;;;;;1.48;0.70;;;;;;;;;;5040509;28;20049;-67
2023/03/14 09:24:47;;;;;;;2.38;0.82;;;;;;;;;;5053769;28;20049;-67
2023/03/14 09:27:14;;;;;;;1.63;0.80;;;;;;;;;;5040776;28;20474;-66
2023/03/14 09:29:40;;;;;;;2.28;0.82;;;;;;;;;;5055381;28;20045;-67
2023/03/14 09:32:07;;;;;;;1.55;0.63;;;;;;;;;;5040145;28;20049;-67
2023/03/14 09:34:33;;;;;;;2.58;0.60;;;;;;;;;;5049956;28;20050;-67
2023/03/14 09:37:02;;;;;;;1.90;0.80;;;;;;;;;;5043898;28;20065;-67
2023/03/14 09:39:28;;;;;;;1.70;0.70;;;;;;;;;;5054562;28;20055;-67
2023/03/14 09:41:57;;;;;;;0.50;0.50;;;;;;;;;;5042227;28;20045;-67
2023/03/14 09:44:25;;;;;;;1.35;0.60;;;;;;;;;;5054265;28;20061;-67
2023/03/14 09:46:51;;;;;;;;;;;;;;;;;;5039601;28;20053;-67
2023/03/14 09:49:18;;;;;;;0.85;0.35;;;;;;;;;;5054209;28;20023;-67
2023/03/14 09:51:45;;;;;;;0.77;0.40;;;;;;;;;;5054171;28;20063;-67
2023/03/14 09:54:23;;;;;;;1.70;0.45;;;;;;;;;;5047761;28;20059;-67
2023/03/14 09:56:50;;;;;;;0.80;0.30;;;;;;;;;;5054306;28;20059;-67
2023/03/14 09:59:16;;;;;;;0.75;0.40;;;;;;;;;;5053850;28;20515;-67
2023/03/14 10:01:44;;;;;;;1.10;0.47;;;;;;;;;;5054137;28;20057;-68
2023/03/14 10:04:13;;;;;;;1.40;0.45;;;;;;;;;;5053802;28;20052;-67
2023/03/14 10:06:40;;;;;;;1.83;0.30;;;;;;;;;;5054277;28;20052;-67
2023/03/14 10:09:09;;;;;;;2.72;0.40;;;;;;;;;;5051613;28;20053;-67
2023/03/14 10:11:35;;;;;;;1.38;0.30;;;;;;;;;;5054075;28;20052;-67
2023/03/14 10:14:02;;;;;;;0.73;0.30;;;;;;;;;;5054005;28;20064;-67
2023/03/14 10:16:31;;;;;;;2.20;0.77;;;;;;;;;;5053968;28;20066;-67
2023/03/14 10:19:09;;;;;;;1.02;0.40;;;;;;;;;;5053693;28;20107;-67
2023/03/14 10:21:39;;;;;;;1.45;0.50;;;;;;;;;;5039381;28;20047;-67
2023/03/14 10:24:10;;;;;;;1.17;0.30;;;;;;;;;;5048218;28;20049;-67
2023/03/14 10:26:37;;;;;;;1.05;0.40;;;;;;;;;;5045668;28;20609;-67
2023/03/14 10:29:08;;;;;;;0.57;0.30;;;;;;;;;;5053467;28;20099;-67
2023/03/14 10:31:53;;;;;;;0.65;0.40;;;;;;;;;;5034432;28;20488;-67
2023/03/14 10:34:33;;;;;;;0.68;0.30;;;;;;;;;;5053599;28;20091;-68
2023/03/14 10:37:08;;;;;;;1.33;0.35;;;;;;;;;;5053634;28;20055;-67
2023/03/14 10:39:48;;;;;;;0.43;0.30;;;;;;;;;;5039939;28;20045;-67
2023/03/14 10:42:19;;;;;;;1.23;0.55;;;;;;;;;;5053463;28;20053;-67
2023/03/14 10:44:45;;;;;;;1.10;0.45;;;;;;;;;;5053632;28;20049;-67
2023/03/14 10:47:17;;;;;;;0.80;0.32;;;;;;;;;;5053600;28;20395;-67
2023/03/14 10:49:44;;;;;;;0.73;0.30;;;;;;;;;;5046374;28;20080;-67
2023/03/14 10:52:15;;;;;;;0.77;0.50;;;;;;;;;;5045551;28;20056;-67
2023/03/14 10:54:44;;;;;;;0.45;0.30;;;;;;;;;;5053217;28;20132;-67
2023/03/14 10:57:11;;;;;;;0.32;0.30;;;;;;;;;;5053223;28;20057;-67
2023/03/14 10:59:39;;;;;;;0.52;0.40;;;;;;;;;;5053124;28;20049;-67
2023/03/14 11:02:14;;;;;;;1.30;0.40;;;;;;;;;;5053035;28;20378;-67
2023/03/14 11:04:44;;;;;;;0.98;0.57;;;;;;;;;;5035063;28;20080;-67
2023/03/14 11:07:10;;;;;;;0.85;0.50;;;;;;;;;;5036163;28;20119;-67
2023/03/14 11:09:56;;;;;;;0.38;0.30;;;;;;;;;;5048425;28;20053;-68
2023/03/14 11:12:31;;;;;;;0.93;0.40;;;;;;;;;;5052670;28;20045;-66
2023/03/14 11:15:02;;;;;;;2.03;0.60;;;;;;;;;;5052856;28;20049;-67
2023/03/14 11:17:38;;;;;;;1.88;0.50;;;;;;;;;;5052650;28;20053;-67
2023/03/14 11:20:22;;;;;;;0.98;0.20;;;;;;;;;;5052857;28;20045;-67
2023/03/14 11:22:59;;;;;;;1.15;0.20;;;;;;;;;;5052741;28;20048;-68
2023/03/14 11:25:28;;;;;;;0.20;0.10;;;;;;;;;;5052724;28;20045;-68
2023/03/14 11:28:06;;;;;;;0.70;0.20;;;;;;;;;;5052431;28;20056;-68
2023/03/14 11:30:36;;;;;;;1.55;0.60;;;;;;;;;;5044998;28;20135;-68
2023/03/14 11:33:16;;;;;;;2.47;2.00;;;;;;;;;;5052313;28;20057;-68
2023/03/14 11:35:49;;;;;;;0.43;0.20;;;;;;;;;;5052537;28;20051;-67
2023/03/14 11:38:29;;;;;;;1.23;0.10;;;;;;;;;;5052548;28;20055;-67
2023/03/14 11:40:57;;;;;;;0.10;0.10;;;;;;;;;;5052285;28;20056;-68
2023/03/14 11:43:27;;;;;;;0.38;0.03;;;;;;;;;;5051424;28;20053;-68
2023/03/14 11:45:57;;;;;;;1.23;0.80;;;;;;;;;;5052226;28;20072;-68
2023/03/14 11:48:43;;;;;;;3.03;2.78;;;;;;;;;;5050758;28;20464;-68
2023/03/14 11:51:13;;;;;;;0.40;0.40;;;;;;;;;;5042175;28;20053;-68
2023/03/14 11:53:39;;;;;;;0.10;0.10;;;;;;;;;;5052205;28;20048;-68
2023/03/14 11:56:14;;;;;;;0.68;0.20;;;;;;;;;;5052622;28;20057;-68
2023/03/14 11:58:45;;;;;;;0.50;0.10;;;;;;;;;;5051937;28;20049;-68
2023/03/14 12:01:13;;;;;;;0.90;0.15;;;;;;;;;;5048498;28;20056;-68
2023/03/14 12:03:45;;;;;;;0.43;0.20;;;;;;;;;;5037459;28;20080;-68
2023/03/14 12:06:17;;;;;;;0.50;0.50;;;;;;;;;;5040941;28;20049;-68
2023/03/14 12:08:46;;;;;;;0.50;0.20;;;;;;;;;;5049428;28;20166;-65
2023/03/14 12:11:19;;;;;;;0.90;0.15;;;;;;;;;;5037524;28;20050;-65
2023/03/14 12:13:47;;;;;;;0.35;0.17;;;;;;;;;;5038668;28;20045;-65
2023/03/14 12:16:23;;;;;;;0.22;0.17;;;;;;;;;;5051491;28;20056;-65
2023/03/14 12:18:51;;;;;;;0.93;0.90;;;;;;;;;;5051733;28;20045;-65
2023/03/14 12:21:17;;;;;;;0.98;0.90;;;;;;;;;;5051472;28;20060;-65
2023/03/14 12:23:54;;;;;;;1.17;0.28;;;;;;;;;;5050777;28;20485;-65
2023/03/14 12:26:25;;;;;;;0.80;0.50;;;;;;;;;;5051542;28;20128;-65
2023/03/14 12:28:57;;;;;;;0.50;0.50;;;;;;;;;;5032634;28;20048;-66
2023/03/14 12:31:30;;;;;;;9.18;8.27;;;;;;;;;;5031388;28;20045;-65
2023/03/14 12:34:03;;;;;;;0.50;0.50;;;;;;;;;;5051146;28;20046;-65
2023/03/14 12:36:50;;;;;;;0.30;0.20;;;;;;;;;;5051123;28;20055;-65
2023/03/14 12:39:35;;;;;;;1.02;0.63;;;;;;;;;;5051296;28;20052;-65
2023/03/14 12:42:04;;;;;;;0.80;0.40;;;;;;;;;;5051204;28;20049;-64
2023/03/14 12:44:31;;;;;;;0.70;0.30;;;;;;;;;;5051392;28;20088;-64
2023/03/14 12:46:57;;;;;;;;;;;;;;;;;;5037316;28;20049;-65
2023/03/14 12:49:30;;;;;;;0.20;0.10;;;;;;;;;;5051320;28;19927;-65
2023/03/14 12:52:00;;;;;;;1.48;0.40;;;;;;;;;;5050843;28;20052;-65
2023/03/14 12:54:29;;;;;;;0.22;0.10;;;;;;;;;;5050803;28;20053;-66
2023/03/14 12:57:04;;;;;;;0.73;0.20;;;;;;;;;;5048723;28;20556;-66
2023/03/14 12:59:32;;;;;;;0.70;0.70;;;;;;;;;;5040563;28;20136;-66
2023/03/14 13:02:08;;;;;;;1.30;0.28;;;;;;;;;;5042199;28;20596;-65
2023/03/14 13:04:36;;;;;;;1.52;0.90;;;;;;;;;;5046753;28;20045;-65
2023/03/14 13:07:10;;;;;;;1.98;0.95;;;;;;;;;;5042695;28;20080;-65
2023/03/14 13:09:50;;;;;;;1.05;0.88;;;;;;;;;;5043111;28;20057;-66
2023/03/14 13:12:18;;;;;;;1.40;1.20;;;;;;;;;;5042684;28;20417;-66
2023/03/14 13:14:46;;;;;;;1.25;0.60;;;;;;;;;;5035263;28;20050;-65
2023/03/14 13:17:13;;;;;;;2.38;0.93;;;;;;;;;;5047013;28;20059;-64
2023/03/14 13:20:02;;;;;;;2.50;1.30;;;;;;;;;;5036606;28;20050;-65
2023/03/14 13:22:31;;;;;;;1.25;0.63;;;;;;;;;;5048963;28;20152;-65
2023/03/14 13:24:59;;;;;;;1.08;0.30;;;;;;;;;;5050881;28;20053;-65
2023/03/14 13:27:25;;;;;;;0.55;0.40;;;;;;;;;;5034973;28;20080;-65
2023/03/14 13:29:52;;;;;;;2.05;0.50;;;;;;;;;;5051061;28;20131;-65
2023/03/14 13:32:25;;;;;;;1.90;0.70;;;;;;;;;;5050882;28;20452;-65
2023/03/14 13:34:55;;;;;;;1.50;0.55;;;;;;;;;;5051643;28;20132;-65
2023/03/14 13:37:22;;;;;;;1.90;1.10;;;;;;;;;;5050835;28;20052;-64
2023/03/14 13:39:55;;;;;;;1.77;0.70;;;;;;;;;;5050696;28;20147;-64
2023/03/14 13:42:25;;;;;;;2.85;0.68;;;;;;;;;;5050887;28;20084;-64
2023/03/14 13:44:53;;;;;;;1.75;0.63;;;;;;;;;;5050753;28;20045;-64
2023/03/14 13:47:20;;;;;;;1.63;0.35;;;;;;;;;;5050699;28;20431;-64
2023/03/14 13:49:48;;;;;;;1.63;0.70;;;;;;;;;;5050357;28;20140;-64
2023/03/14 13:52:28;;;;;;;2.25;0.60;;;;;;;;;;5050327;28;20203;-64
2023/03/14 13:54:55;;;;;;;1.92;0.65;;;;;;;;;;5050675;28;20060;-64
2023/03/14 13:57:22;;;;;;;1.00;0.40;;;;;;;;;;5050647;28;20052;-65
2023/03/14 13:59:59;;;;;;;3.30;0.70;;;;;;;;;;5046886;28;20049;-65
2023/03/14 14:02:27;;;;;;;2.03;0.80;;;;;;;;;;5037673;28;20137;-65
2023/03/14 14:04:53;;;;;;;5.00;0.93;;;;;;;;;;5039967;28;20068;-65
2023/03/14 14:07:20;;;;;;;2.00;1.33;;;;;;;;;;5039667;28;20045;-65
2023/03/14 14:09:47;;;;;;;4.90;1.55;;;;;;;;;;5051748;28;20063;-65
2023/03/14 14:12:21;;;;;;;3.95;1.30;;;;;;;;;;5053724;28;20049;-67
2023/03/14 14:14:47;;;;;;;5.82;1.35;;;;;;;;;;5053919;28;20056;-67
2023/03/14 14:17:16;;;;;;;9.80;1.60;;;;;;;;;;5053960;28;20076;-67
2023/03/14 14:19:43;;;;;;;7.20;1.60;;;;;;;;;;5053744;28;20474;-67
2023/03/14 14:22:10;;;;;;;11.52;1.65;;;;;;;;;;5044571;28;20047;-67
2023/03/14 14:24:37;;;;;;;8.55;1.60;;;;;;;;;;5048199;28;20056;-67
2023/03/14 14:27:25;;;;;;;5.55;1.50;;;;;;;;;;5053516;28;20091;-67
2023/03/14 14:30:01;;;;;;;5.97;1.30;;;;;;;;;;5053838;28;20063;-67
2023/03/14 14:32:33;;;;;;;6.05;1.90;;;;;;;;;;5054295;28;20048;-66
2023/03/14 14:35:00;;;;;;;8.05;1.80;;;;;;;;;;5048935;28;20045;-67
2023/03/14 14:37:31;;;;;;;5.05;1.73;;;;;;;;;;5043806;28;20140;-67
2023/03/14 14:39:59;;;;;;;6.72;1.40;;;;;;;;;;5049827;28;20049;-66
2023/03/14 14:42:27;;;;;;;5.45;1.60;;;;;;;;;;5032406;28;20040;-67
2023/03/14 14:44:55;;;;;;;6.65;1.92;;;;;;;;;;5046530;28;20393;-67
2023/03/14 14:47:23;;;;;;;5.78;1.73;;;;;;;;;;5053878;28;20516;-67
2023/03/14 14:49:50;;;;;;;6.25;1.50;;;;;;;;;;5045978;28;20050;-67